createdAt,value
2023-03-12T00:00:34.219Z,1.17
2023-03-12T00:01:35.123Z,1.17
2023-03-12T00:02:34.208Z,1.16
2023-03-12T00:03:34.265Z,1.14
2023-03-12T00:04:34.184Z,1.14
2023-03-12T00:05:34.139Z,1.13
2023-03-12T00:06:35.071Z,1.13
2023-03-12T00:07:34.126Z,1.14
2023-03-12T00:08:34.140Z,1.16
2023-03-12T00:09:34.140Z,1.19
2023-03-12T00:10:34.102Z,1.19
2023-03-12T00:11:34.113Z,1.19
2023-03-12T00:12:35.011Z,1.19
2023-03-12T00:13:34.089Z,1.19
2023-03-12T00:14:34.080Z,1.17
2023-03-12T00:15:34.059Z,1.19
2023-03-12T00:16:34.000Z,1.17
2023-03-12T00:17:34.006Z,1.17
2023-03-12T00:18:34.978Z,1.16
2023-03-12T00:19:34.036Z,1.14
2023-03-12T00:20:33.967Z,1.13
2023-03-12T00:21:34.005Z,1.13
2023-03-12T00:22:33.979Z,1.13
2023-03-12T00:23:34.858Z,1.12
2023-03-12T00:24:34.010Z,1.13
2023-03-12T00:25:33.926Z,1.10
2023-03-12T00:26:33.891Z,1.12
2023-03-12T00:27:33.871Z,1.10
2023-03-12T00:28:33.858Z,1.12
2023-03-12T00:29:34.887Z,1.12
2023-03-12T00:30:33.898Z,1.10
2023-03-12T00:31:33.892Z,1.10
2023-03-12T00:32:33.875Z,1.10
2023-03-12T00:33:33.885Z,1.12
2023-03-12T00:34:33.810Z,1.12
2023-03-12T00:35:34.786Z,1.12
2023-03-12T00:36:33.806Z,1.12
2023-03-12T00:37:33.783Z,1.12
2023-03-12T00:38:33.722Z,1.13
2023-03-12T00:39:33.760Z,1.12
2023-03-12T00:40:34.670Z,1.13
2023-03-12T00:41:33.703Z,1.13
2023-03-12T00:42:33.668Z,1.13
2023-03-12T00:43:33.667Z,1.13
2023-03-12T00:44:33.767Z,1.13
2023-03-12T00:45:34.806Z,1.13
2023-03-12T00:46:33.690Z,1.13
2023-03-12T00:47:33.619Z,1.14
2023-03-12T00:48:33.639Z,1.13
2023-03-12T00:49:33.583Z,1.13
2023-03-12T00:50:34.513Z,1.13
2023-03-12T00:51:33.576Z,1.13
2023-03-12T00:52:33.567Z,1.13
2023-03-12T00:53:33.595Z,1.13
2023-03-12T00:54:33.549Z,1.13
2023-03-12T00:55:33.505Z,1.13
2023-03-12T00:56:34.485Z,1.13
2023-03-12T00:57:33.501Z,1.14
2023-03-12T00:58:33.498Z,1.17
2023-03-12T00:59:33.477Z,1.17
2023-03-12T01:00:33.507Z,1.20
2023-03-12T01:01:34.388Z,1.20
2023-03-12T01:02:33.444Z,1.23
2023-03-12T01:03:33.411Z,1.24
2023-03-12T01:04:33.426Z,1.28
2023-03-12T01:05:35.133Z,1.31
2023-03-12T01:06:34.291Z,1.31
2023-03-12T01:07:33.382Z,1.34
2023-03-12T01:08:33.380Z,1.32
2023-03-12T01:09:33.345Z,1.32
2023-03-12T01:10:33.327Z,1.34
2023-03-12T01:11:34.242Z,1.32
2023-03-12T01:12:33.326Z,1.34
2023-03-12T01:13:33.312Z,1.37
2023-03-12T01:14:33.338Z,1.35
2023-03-12T01:15:33.289Z,1.37
2023-03-12T01:16:33.296Z,1.38
2023-03-12T01:17:34.184Z,1.40
2023-03-12T01:18:33.235Z,1.40
2023-03-12T01:19:33.248Z,1.41
2023-03-12T01:20:33.197Z,1.42
2023-03-12T01:21:33.197Z,1.44
2023-03-12T01:22:33.556Z,1.44
2023-03-12T01:23:34.080Z,1.48
2023-03-12T01:24:33.181Z,1.45
2023-03-12T01:25:33.165Z,1.45
2023-03-12T01:26:33.139Z,1.42
2023-03-12T01:27:33.142Z,1.42
2023-03-12T01:28:34.037Z,1.41
2023-03-12T01:29:33.103Z,1.40
2023-03-12T01:30:33.065Z,1.38
2023-03-12T01:31:33.147Z,1.40
2023-03-12T01:32:33.124Z,1.38
2023-03-12T01:33:33.033Z,1.41
2023-03-12T01:34:33.971Z,1.40
2023-03-12T01:35:33.155Z,1.40
2023-03-12T01:36:33.039Z,1.38
2023-03-12T01:37:33.018Z,1.38
2023-03-12T01:38:32.969Z,1.37
2023-03-12T01:39:32.955Z,1.35
2023-03-12T01:40:33.893Z,1.35
2023-03-12T01:41:32.933Z,1.34
2023-03-12T01:42:32.928Z,1.34
2023-03-12T01:43:32.896Z,1.32
2023-03-12T01:44:32.920Z,1.31
2023-03-12T01:45:32.906Z,1.32
2023-03-12T01:46:33.796Z,1.31
2023-03-12T01:47:32.890Z,1.32
2023-03-12T01:48:32.844Z,1.31
2023-03-12T01:49:32.875Z,1.34
2023-03-12T01:50:32.824Z,1.35
2023-03-12T01:51:33.715Z,1.37
2023-03-12T01:52:32.775Z,1.38
2023-03-12T01:53:32.808Z,1.40
2023-03-12T01:54:32.776Z,1.41
2023-03-12T01:55:32.745Z,1.42
2023-03-12T01:56:32.730Z,1.42
2023-03-12T01:57:33.636Z,1.45
2023-03-12T01:58:32.733Z,1.48
2023-03-12T01:59:32.712Z,1.45
2023-03-12T02:00:32.695Z,1.44
2023-03-12T02:01:32.685Z,1.45
2023-03-12T02:02:32.736Z,1.48
2023-03-12T02:03:33.655Z,1.48
2023-03-12T02:04:32.693Z,1.48
2023-03-12T02:05:32.639Z,1.45
2023-03-12T02:06:32.596Z,1.49
2023-03-12T02:07:32.594Z,1.48
2023-03-12T02:08:33.529Z,1.45
2023-03-12T02:09:32.563Z,1.45
2023-03-12T02:10:32.552Z,1.48
2023-03-12T02:11:32.552Z,1.45
2023-03-12T02:12:32.558Z,1.48
2023-03-12T02:13:33.458Z,1.48
2023-03-12T02:14:32.503Z,1.49
2023-03-12T02:15:32.512Z,1.49
2023-03-12T02:16:32.562Z,1.52
2023-03-12T02:17:32.486Z,1.52
2023-03-12T02:18:32.479Z,1.56
2023-03-12T02:19:33.383Z,1.56
2023-03-12T02:20:32.544Z,1.55
2023-03-12T02:21:32.442Z,1.55
2023-03-12T02:22:32.396Z,1.55
2023-03-12T02:23:32.421Z,1.55
2023-03-12T02:24:33.492Z,1.52
2023-03-12T02:25:32.405Z,1.50
2023-03-12T02:26:32.380Z,1.48
2023-03-12T02:27:32.394Z,1.45
2023-03-12T02:28:32.348Z,1.48
2023-03-12T02:29:32.329Z,1.48
2023-03-12T02:30:33.271Z,1.45
2023-03-12T02:31:32.352Z,1.48
2023-03-12T02:32:32.297Z,1.45
2023-03-12T02:33:32.268Z,1.48
2023-03-12T02:34:32.282Z,1.48
2023-03-12T02:35:33.211Z,1.48
2023-03-12T02:36:32.247Z,1.44
2023-03-12T02:37:32.208Z,1.44
2023-03-12T02:38:32.188Z,1.42
2023-03-12T02:39:32.195Z,1.41
2023-03-12T02:40:32.240Z,1.38
2023-03-12T02:41:33.099Z,1.37
2023-03-12T02:42:32.238Z,1.38
2023-03-12T02:43:32.135Z,1.40
2023-03-12T02:44:32.128Z,1.40
2023-03-12T02:45:32.105Z,1.38
2023-03-12T02:46:32.106Z,1.38
2023-03-12T02:47:33.096Z,1.35
2023-03-12T02:48:32.064Z,1.34
2023-03-12T02:49:32.134Z,1.28
2023-03-12T02:50:32.045Z,1.24
2023-03-12T02:51:32.076Z,1.20
2023-03-12T02:52:32.060Z,1.17
2023-03-12T02:53:32.994Z,1.16
2023-03-12T02:54:32.028Z,1.16
2023-03-12T02:55:31.982Z,1.14
2023-03-12T02:56:31.997Z,1.13
2023-03-12T02:57:31.965Z,1.14
2023-03-12T02:58:31.954Z,1.13
2023-03-12T02:59:32.873Z,1.12
2023-03-12T03:00:31.943Z,1.10
2023-03-12T03:01:31.956Z,1.06
2023-03-12T03:02:31.899Z,1.05
2023-03-12T03:03:31.894Z,1.04
2023-03-12T03:04:31.956Z,1.01
2023-03-12T03:05:32.796Z,0.99
2023-03-12T03:06:31.853Z,0.98
2023-03-12T03:07:31.842Z,0.96
2023-03-12T03:08:31.831Z,0.94
2023-03-12T03:09:31.797Z,0.95
2023-03-12T03:10:32.760Z,0.95
2023-03-12T03:11:31.782Z,0.96
2023-03-12T03:12:31.772Z,0.96
2023-03-12T03:14:15.620Z,0.96
2023-03-12T03:15:16.475Z,0.95
2023-03-12T03:16:15.587Z,0.95
2023-03-12T03:17:15.594Z,0.92
2023-03-12T03:18:15.744Z,0.91
2023-03-12T03:19:15.450Z,0.91
2023-03-12T03:20:15.467Z,0.88
2023-03-12T03:21:16.394Z,0.91
2023-03-12T03:22:15.666Z,0.88
2023-03-12T03:23:15.424Z,0.86
2023-03-12T03:24:15.470Z,0.86
2023-03-12T03:25:15.901Z,0.84
2023-03-12T03:26:16.322Z,0.84
2023-03-12T03:27:15.367Z,0.81
2023-03-12T03:28:15.378Z,0.81
2023-03-12T03:29:15.385Z,0.81
2023-03-12T03:30:15.313Z,0.83
2023-03-12T03:31:16.316Z,0.81
2023-03-12T03:32:15.374Z,0.81
2023-03-12T03:33:15.309Z,0.81
2023-03-12T03:34:15.347Z,0.78
2023-03-12T03:35:15.270Z,0.80
2023-03-12T03:36:16.192Z,0.78
2023-03-12T03:37:15.264Z,0.78
2023-03-12T03:38:15.275Z,0.78
2023-03-12T03:39:15.223Z,0.80
2023-03-12T03:40:15.212Z,0.78
2023-03-12T03:41:16.169Z,0.80
2023-03-12T03:42:15.156Z,0.80
2023-03-12T03:43:15.160Z,0.77
2023-03-12T03:44:15.172Z,0.74
2023-03-12T03:45:15.178Z,0.73
2023-03-12T03:46:15.164Z,0.73
2023-03-12T03:47:16.996Z,0.73
2023-03-12T03:48:15.103Z,0.69
2023-03-12T03:49:15.138Z,0.68
2023-03-12T03:50:15.120Z,0.68
2023-03-12T03:51:15.071Z,0.65
2023-03-12T03:52:16.027Z,0.65
2023-03-12T03:53:15.034Z,0.65
2023-03-12T03:54:15.095Z,0.63
2023-03-12T03:55:15.004Z,0.63
2023-03-12T03:56:15.018Z,0.62
2023-03-12T03:57:15.927Z,0.60
2023-03-12T03:58:15.025Z,0.62
2023-03-12T03:59:15.019Z,0.60
2023-03-12T04:00:14.982Z,0.59
2023-03-12T04:01:14.964Z,0.58
2023-03-12T04:02:14.925Z,0.59
2023-03-12T04:03:15.883Z,0.58
2023-03-12T04:04:14.920Z,0.59
2023-03-12T04:05:14.960Z,0.59
2023-03-12T04:06:14.870Z,0.58
2023-03-12T04:07:14.872Z,0.58
2023-03-12T04:08:14.920Z,0.56
2023-03-12T04:09:15.768Z,0.56
2023-03-12T04:10:14.870Z,0.56
2023-03-12T04:11:14.902Z,0.56
2023-03-12T04:12:14.862Z,0.55
2023-03-12T04:13:15.021Z,0.55
2023-03-12T04:14:15.716Z,0.55
2023-03-12T04:15:14.876Z,0.52
2023-03-12T04:16:14.808Z,0.55
2023-03-12T04:17:14.814Z,0.55
2023-03-12T04:18:14.792Z,0.56
2023-03-12T04:19:15.672Z,0.55
2023-03-12T04:20:15.001Z,0.52
2023-03-12T04:21:14.674Z,0.55
2023-03-12T04:22:14.727Z,0.56
2023-03-12T04:23:14.681Z,0.55
2023-03-12T04:24:14.682Z,0.55
2023-03-12T04:25:15.648Z,0.55
2023-03-12T04:26:14.637Z,0.52
2023-03-12T04:27:14.674Z,0.52
2023-03-12T04:28:14.654Z,0.50
2023-03-12T04:29:14.606Z,0.49
2023-03-12T04:30:16.508Z,0.47
2023-03-12T04:31:14.600Z,0.46
2023-03-12T04:33:38.244Z,0.49
2023-03-12T04:34:40.193Z,0.47
2023-03-12T04:35:39.101Z,0.47
2023-03-12T04:36:38.179Z,0.46
2023-03-12T04:37:38.127Z,0.46
2023-03-12T04:38:38.136Z,0.44
2023-03-12T04:39:38.203Z,0.43
2023-03-12T04:40:38.134Z,0.44
2023-03-12T04:41:39.024Z,0.43
2023-03-12T04:42:38.079Z,0.41
2023-03-12T04:43:38.129Z,0.40
2023-03-12T04:44:38.108Z,0.40
2023-03-12T04:45:38.214Z,0.39
2023-03-12T04:46:38.063Z,0.40
2023-03-12T04:47:38.941Z,0.40
2023-03-12T04:48:38.090Z,0.39
2023-03-12T04:49:37.948Z,0.37
2023-03-12T04:50:38.038Z,0.37
2023-03-12T04:51:37.977Z,0.37
2023-03-12T04:52:37.938Z,0.36
2023-03-12T04:53:38.894Z,0.36
2023-03-12T04:54:38.023Z,0.37
2023-03-12T04:55:37.912Z,0.37
2023-03-12T04:56:37.896Z,0.34
2023-03-12T04:57:37.910Z,0.32
2023-03-12T04:58:38.824Z,0.28
2023-03-12T04:59:37.904Z,0.28
2023-03-12T05:00:37.952Z,0.29
2023-03-12T05:01:37.834Z,0.28
2023-03-12T05:02:37.915Z,0.26
2023-03-12T05:03:38.853Z,0.26
2023-03-12T05:04:37.830Z,0.25
2023-03-12T05:05:37.938Z,0.25
2023-03-12T05:06:37.785Z,0.23
2023-03-12T05:07:37.795Z,0.25
2023-03-12T05:08:37.741Z,0.25
2023-03-12T05:09:38.675Z,0.25
2023-03-12T05:10:37.765Z,0.25
2023-03-12T05:11:39.705Z,0.23
2023-03-12T05:12:37.676Z,0.22
2023-03-12T05:13:37.690Z,0.22
2023-03-12T05:14:38.611Z,0.22
2023-03-12T05:15:37.680Z,0.21
2023-03-12T05:16:37.649Z,0.21
2023-03-12T05:17:37.607Z,0.19
2023-03-12T05:18:37.602Z,0.21
2023-03-12T05:19:38.561Z,0.21
2023-03-12T05:20:37.595Z,0.21
2023-03-12T05:21:38.575Z,0.21
2023-03-12T05:22:37.569Z,0.21
2023-03-12T05:23:37.549Z,0.19
2023-03-12T05:24:37.581Z,0.19
2023-03-12T05:25:38.446Z,0.21
2023-03-12T05:26:37.540Z,0.19
2023-03-12T05:27:37.498Z,0.21
2023-03-12T05:28:37.544Z,0.19
2023-03-12T05:29:37.491Z,0.18
2023-03-12T05:30:37.479Z,0.19
2023-03-12T05:31:38.451Z,0.19
2023-03-12T05:32:37.478Z,0.21
2023-03-12T05:33:37.494Z,0.19
2023-03-12T05:34:37.416Z,0.18
2023-03-12T05:35:37.479Z,0.18
2023-03-12T05:36:37.447Z,0.19
2023-03-12T05:37:38.377Z,0.21
2023-03-12T05:38:37.334Z,0.21
2023-03-12T05:39:37.393Z,0.21
2023-03-12T05:40:37.357Z,0.21
2023-03-12T05:41:37.347Z,0.22
2023-03-12T05:42:38.213Z,0.23
2023-03-12T05:43:37.705Z,0.21
2023-03-12T05:46:17.792Z,0.18
2023-03-12T05:47:20.426Z,0.16
2023-03-12T05:48:18.554Z,0.15
2023-03-12T05:49:17.675Z,0.15
2023-03-12T05:50:17.614Z,0.15
2023-03-12T05:51:17.606Z,0.16
2023-03-12T05:52:17.591Z,0.18
2023-03-12T05:53:17.629Z,0.18
2023-03-12T05:54:18.488Z,0.21
2023-03-12T05:55:17.542Z,0.21
2023-03-12T05:56:17.517Z,0.23
2023-03-12T05:57:17.585Z,0.25
2023-03-12T05:58:17.504Z,0.23
2023-03-12T05:59:17.510Z,0.22
2023-03-12T06:00:18.427Z,0.23
2023-03-12T06:01:17.476Z,0.25
2023-03-12T06:02:18.553Z,0.23
2023-03-12T06:03:17.547Z,0.28
2023-03-12T06:04:17.465Z,0.28
2023-03-12T06:05:17.589Z,0.29
2023-03-12T06:06:18.310Z,0.31
2023-03-12T06:07:17.378Z,0.31
2023-03-12T06:08:17.377Z,0.32
2023-03-12T06:09:17.404Z,0.36
2023-03-12T06:10:17.361Z,0.41
2023-03-12T06:11:17.651Z,0.43
2023-03-12T06:12:18.341Z,0.44
2023-03-12T06:13:17.303Z,0.49
2023-03-12T06:14:17.320Z,0.50
2023-03-12T06:15:17.321Z,0.55
2023-03-12T06:16:17.299Z,0.59
2023-03-12T06:17:17.304Z,0.59
2023-03-12T06:18:18.218Z,0.58
2023-03-12T06:19:17.438Z,0.56
2023-03-12T06:20:17.238Z,0.56
2023-03-12T06:21:17.225Z,0.50
2023-03-12T06:22:17.210Z,0.52
2023-03-12T06:23:20.370Z,0.55
2023-03-12T06:24:17.180Z,0.56
2023-03-12T06:25:17.173Z,0.60
2023-03-12T06:26:17.208Z,0.62
2023-03-12T06:27:17.159Z,0.66
2023-03-12T06:28:17.145Z,0.68
2023-03-12T06:29:18.075Z,0.74
2023-03-12T06:30:17.089Z,0.77
2023-03-12T06:31:17.135Z,0.77
2023-03-12T06:32:17.312Z,0.74
2023-03-12T06:33:17.081Z,0.77
2023-03-12T06:34:17.081Z,0.76
2023-03-12T06:35:17.975Z,0.77
2023-03-12T06:36:17.060Z,0.78
2023-03-12T06:37:17.049Z,0.81
2023-03-12T06:38:17.000Z,0.80
2023-03-12T06:39:17.059Z,0.81
2023-03-12T06:40:17.957Z,0.83
2023-03-12T06:41:16.996Z,0.86
2023-03-12T06:42:16.983Z,0.87
2023-03-12T06:43:16.929Z,0.91
2023-03-12T06:44:16.974Z,0.95
2023-03-12T06:45:18.099Z,0.98
2023-03-12T06:46:17.894Z,1.01
2023-03-12T06:47:17.802Z,1.04
2023-03-12T06:49:39.665Z,1.12
2023-03-12T06:50:39.692Z,1.08
2023-03-12T06:51:45.984Z,1.06
2023-03-12T06:52:39.607Z,1.08
2023-03-12T06:53:42.195Z,1.12
2023-03-12T06:54:39.717Z,1.19
2023-03-12T06:55:39.593Z,1.20
2023-03-12T06:56:39.656Z,1.22
2023-03-12T06:57:40.484Z,1.23
2023-03-12T06:58:39.641Z,1.24
2023-03-12T06:59:39.578Z,1.28
2023-03-12T07:00:39.553Z,1.28
2023-03-12T07:01:43.743Z,1.30
2023-03-12T07:02:39.500Z,1.31
2023-03-12T07:03:40.429Z,1.31
2023-03-12T07:04:39.616Z,1.35
2023-03-12T07:05:39.506Z,1.41
2023-03-12T07:06:39.488Z,1.42
2023-03-12T07:07:39.492Z,1.45
2023-03-12T07:08:40.392Z,1.49
2023-03-12T07:09:39.530Z,1.50
2023-03-12T07:10:39.395Z,1.52
2023-03-12T07:11:39.426Z,1.53
2023-03-12T07:12:39.429Z,1.56
2023-03-12T07:13:39.450Z,1.56
2023-03-12T07:14:40.413Z,1.56
2023-03-12T07:15:39.392Z,1.58
2023-03-12T07:16:39.431Z,1.62
2023-03-12T07:17:39.424Z,1.63
2023-03-12T07:18:39.317Z,1.63
2023-03-12T07:19:40.269Z,1.66
2023-03-12T07:20:39.307Z,1.66
2023-03-12T07:21:39.312Z,1.62
2023-03-12T07:22:39.337Z,1.63
2023-03-12T07:23:39.275Z,1.67
2023-03-12T07:24:40.212Z,1.70
2023-03-12T07:25:39.252Z,1.73
2023-03-12T07:26:39.198Z,1.74
2023-03-12T07:27:39.284Z,1.80
2023-03-12T07:28:39.170Z,1.85
2023-03-12T07:29:40.112Z,1.88
2023-03-12T07:30:39.182Z,1.88
2023-03-12T07:31:39.234Z,1.84
2023-03-12T07:32:39.192Z,1.80
2023-03-12T07:33:39.330Z,1.77
2023-03-12T07:34:39.167Z,1.80
2023-03-12T07:35:40.148Z,1.87
2023-03-12T07:36:39.186Z,1.91
2023-03-12T07:37:39.122Z,1.95
2023-03-12T07:38:39.117Z,1.97
2023-03-12T07:39:39.135Z,1.95
2023-03-12T07:40:39.189Z,1.97
2023-03-12T07:41:39.964Z,2.06
2023-03-12T07:42:39.044Z,2.08
2023-03-12T07:43:39.093Z,2.13
2023-03-12T07:44:39.041Z,2.20
2023-03-12T07:45:39.109Z,2.28
2023-03-12T07:46:38.986Z,2.35
2023-03-12T07:47:40.155Z,2.44
2023-03-12T07:48:38.991Z,2.53
2023-03-12T07:49:38.990Z,2.56
2023-03-12T07:50:38.913Z,2.57
2023-03-12T07:51:38.909Z,2.60
2023-03-12T07:52:39.811Z,2.67
2023-03-12T07:53:38.972Z,2.74
2023-03-12T07:54:39.082Z,2.83
2023-03-12T07:57:17.924Z,2.90
2023-03-12T07:58:18.937Z,2.93
2023-03-12T07:59:17.866Z,3.04
2023-03-12T08:00:17.800Z,3.07
2023-03-12T08:01:18.719Z,3.03
2023-03-12T08:02:18.838Z,3.04
2023-03-12T08:03:18.872Z,3.00
2023-03-12T08:04:18.782Z,3.01
2023-03-12T08:05:17.782Z,3.05
2023-03-12T08:06:17.761Z,3.10
2023-03-12T08:07:17.741Z,3.13
2023-03-12T08:08:17.718Z,3.10
2023-03-12T08:09:17.672Z,3.07
2023-03-12T08:10:18.614Z,3.05
2023-03-12T08:11:17.699Z,3.07
2023-03-12T08:12:17.665Z,3.10
2023-03-12T08:13:17.715Z,3.18
2023-03-12T08:14:17.634Z,3.25
2023-03-12T08:15:18.582Z,3.32
2023-03-12T08:16:17.604Z,3.37
2023-03-12T08:17:17.567Z,3.40
2023-03-12T08:18:17.601Z,3.41
2023-03-12T08:19:17.543Z,3.44
2023-03-12T08:20:19.359Z,3.51
2023-03-12T08:21:17.588Z,3.60
2023-03-12T08:22:17.492Z,3.63
2023-03-12T08:23:17.562Z,3.66
2023-03-12T08:24:17.566Z,3.66
2023-03-12T08:25:17.438Z,3.66
2023-03-12T08:26:18.368Z,3.69
2023-03-12T08:27:17.407Z,3.76
2023-03-12T08:28:17.432Z,3.81
2023-03-12T08:29:17.506Z,3.87
2023-03-12T08:30:17.385Z,3.95
2023-03-12T08:31:18.391Z,4.04
2023-03-12T08:32:17.504Z,4.05
2023-03-12T08:33:17.795Z,4.14
2023-03-12T08:34:17.899Z,4.20
2023-03-12T08:35:17.757Z,4.26
2023-03-12T08:36:20.097Z,4.35
2023-03-12T08:37:17.285Z,4.45
2023-03-12T08:38:17.472Z,4.53
2023-03-12T08:39:17.337Z,4.55
2023-03-12T08:40:17.335Z,4.53
2023-03-12T08:41:17.266Z,4.53
2023-03-12T08:42:18.155Z,4.59
2023-03-12T08:43:17.293Z,4.62
2023-03-12T08:44:17.246Z,4.63
2023-03-12T08:45:17.242Z,4.59
2023-03-12T08:46:17.230Z,4.55
2023-03-12T08:47:18.081Z,4.50
2023-03-12T08:48:17.297Z,4.45
2023-03-12T08:49:17.138Z,4.48
2023-03-12T08:50:17.171Z,4.48
2023-03-12T08:51:17.144Z,4.48
2023-03-12T08:52:18.027Z,4.42
2023-03-12T08:53:17.196Z,4.35
2023-03-12T08:54:17.089Z,4.31
2023-03-12T08:55:17.085Z,4.34
2023-03-12T08:56:17.134Z,4.32
2023-03-12T08:57:18.004Z,4.34
2023-03-12T08:58:17.104Z,4.38
2023-03-12T08:59:17.027Z,4.41
2023-03-12T09:00:16.980Z,4.44
2023-03-12T09:01:17.087Z,4.48
2023-03-12T09:02:16.994Z,4.50
2023-03-12T09:03:17.996Z,4.55
2023-03-12T09:04:16.971Z,4.62
2023-03-12T09:05:16.950Z,4.68
2023-03-12T09:06:17.039Z,4.73
2023-03-12T09:08:56.141Z,5.02
2023-03-12T09:09:56.156Z,5.17
2023-03-12T09:10:56.148Z,5.25
2023-03-12T09:11:57.040Z,5.29
2023-03-12T09:12:56.071Z,5.30
2023-03-12T09:15:02.389Z,5.36
2023-03-12T09:15:41.256Z,5.36
2023-03-12T09:16:40.279Z,5.35
2023-03-12T09:17:40.209Z,5.39
2023-03-12T09:18:40.225Z,5.47
2023-03-12T09:19:41.140Z,5.50
2023-03-12T09:20:40.171Z,5.64
2023-03-12T09:21:40.284Z,5.76
2023-03-12T09:22:40.265Z,5.83
2023-03-12T09:23:40.132Z,5.93
2023-03-12T09:24:40.136Z,6.08
2023-03-12T09:25:41.060Z,6.14
2023-03-12T09:26:40.077Z,6.19
2023-03-12T09:27:40.080Z,6.22
2023-03-12T09:28:40.086Z,6.33
2023-03-12T09:29:53.464Z,6.48
2023-03-12T09:30:41.584Z,6.54
2023-03-12T09:31:40.989Z,6.64
2023-03-12T09:32:40.084Z,6.70
2023-03-12T09:33:40.026Z,6.70
2023-03-12T09:34:39.984Z,6.59
2023-03-12T09:35:39.988Z,6.46
2023-03-12T09:36:39.971Z,6.39
2023-03-12T09:37:40.918Z,6.38
2023-03-12T09:38:39.958Z,6.41
2023-03-12T09:39:39.903Z,6.56
2023-03-12T09:40:39.951Z,6.64
2023-03-12T09:41:39.944Z,6.77
2023-03-12T09:42:39.885Z,6.89
2023-03-12T09:43:40.827Z,7.00
2023-03-12T09:44:39.877Z,6.93
2023-03-12T09:45:39.863Z,6.89
2023-03-12T09:46:39.850Z,6.87
2023-03-12T09:47:39.806Z,6.82
2023-03-12T09:48:40.776Z,6.85
2023-03-12T09:49:39.793Z,6.92
2023-03-12T09:50:39.794Z,6.95
2023-03-12T09:51:39.786Z,6.97
2023-03-12T09:52:39.784Z,6.97
2023-03-12T09:53:40.686Z,7.03
2023-03-12T09:54:39.712Z,7.11
2023-03-12T09:55:39.728Z,7.24
2023-03-12T09:56:39.713Z,7.43
2023-03-12T09:57:39.749Z,7.63
2023-03-12T09:58:39.676Z,7.57
2023-03-12T09:59:40.713Z,7.66
2023-03-12T10:00:39.663Z,7.70
2023-03-12T10:01:39.650Z,7.61
2023-03-12T10:02:39.634Z,7.66
2023-03-12T10:03:39.678Z,7.67
2023-03-12T10:04:58.185Z,7.54
2023-03-12T10:05:41.094Z,7.47
2023-03-12T10:06:39.579Z,7.43
2023-03-12T10:07:39.543Z,7.58
2023-03-12T10:08:39.575Z,7.63
2023-03-12T10:09:39.539Z,7.57
2023-03-12T10:10:40.444Z,7.54
2023-03-12T10:11:39.533Z,7.66
2023-03-12T10:12:39.496Z,7.58
2023-03-12T10:13:39.509Z,7.63
2023-03-12T10:14:39.520Z,7.73
2023-03-12T10:15:39.490Z,7.77
2023-03-12T10:16:40.359Z,7.83
2023-03-12T10:17:39.437Z,7.93
2023-03-12T10:18:39.556Z,7.97
2023-03-12T10:19:39.417Z,8.05
2023-03-12T10:20:39.399Z,8.06
2023-03-12T10:21:40.335Z,8.06
2023-03-12T10:22:39.362Z,8.00
2023-03-12T10:23:39.378Z,8.08
2023-03-12T10:24:39.332Z,8.15
2023-03-12T10:25:39.323Z,8.28
2023-03-12T10:26:39.327Z,8.24
2023-03-12T10:27:40.243Z,8.18
2023-03-12T10:28:39.289Z,8.08
2023-03-12T10:29:39.313Z,7.93
2023-03-12T10:30:39.299Z,7.88
2023-03-12T10:31:39.293Z,7.88
2023-03-12T10:32:39.258Z,7.97
2023-03-12T10:33:40.156Z,8.20
2023-03-12T10:34:39.241Z,8.41
2023-03-12T10:35:39.220Z,8.38
2023-03-12T10:36:39.195Z,8.36
2023-03-12T10:37:39.185Z,8.34
2023-03-12T10:38:39.151Z,8.34
2023-03-12T10:39:40.162Z,8.10
2023-03-12T10:40:39.160Z,7.91
2023-03-12T10:41:39.129Z,7.75
2023-03-12T10:42:39.101Z,7.66
2023-03-12T10:43:39.096Z,7.60
2023-03-12T10:44:39.103Z,7.53
2023-03-12T10:45:39.998Z,7.42
2023-03-12T10:46:39.146Z,7.51
2023-03-12T10:47:39.076Z,7.72
2023-03-12T10:48:39.091Z,8.01
2023-03-12T10:49:39.010Z,8.20
2023-03-12T10:50:39.985Z,8.36
2023-03-12T10:51:39.003Z,8.37
2023-03-12T10:52:38.983Z,8.24
2023-03-12T10:53:38.978Z,8.24
2023-03-12T10:54:38.952Z,8.18
2023-03-12T10:55:38.949Z,8.13
2023-03-12T10:56:39.871Z,8.08
2023-03-12T10:57:38.913Z,8.05
2023-03-12T10:58:38.921Z,8.05
2023-03-12T10:59:38.967Z,8.13
2023-03-12T11:00:38.868Z,8.30
2023-03-12T11:01:39.819Z,8.30
2023-03-12T11:02:38.840Z,8.24
2023-03-12T11:03:38.871Z,8.28
2023-03-12T11:04:38.842Z,8.16
2023-03-12T11:05:38.866Z,8.23
2023-03-12T11:06:38.823Z,8.37
2023-03-12T11:07:39.774Z,8.61
2023-03-12T11:08:38.818Z,8.85
2023-03-12T11:09:38.856Z,8.92
2023-03-12T11:10:38.772Z,8.95
2023-03-12T11:11:38.744Z,9.02
2023-03-12T11:12:39.742Z,9.08
2023-03-12T11:13:38.758Z,8.94
2023-03-12T11:14:38.743Z,8.88
2023-03-12T11:15:38.772Z,8.91
2023-03-12T11:16:38.673Z,8.88
2023-03-12T11:17:38.675Z,8.87
2023-03-12T11:18:39.653Z,9.00
2023-03-12T11:19:38.645Z,9.08
2023-03-12T11:20:38.644Z,8.94
2023-03-12T11:21:38.600Z,8.88
2023-03-12T11:22:38.601Z,8.79
2023-03-12T11:23:38.607Z,8.71
2023-03-12T11:24:39.504Z,8.67
2023-03-12T11:25:38.597Z,8.66
2023-03-12T11:26:38.581Z,8.79
2023-03-12T11:27:38.544Z,9.00
2023-03-12T11:28:38.512Z,9.18
2023-03-12T11:29:39.460Z,9.06
2023-03-12T11:30:38.536Z,8.85
2023-03-12T11:31:38.551Z,8.76
2023-03-12T11:32:38.498Z,8.61
2023-03-12T11:33:38.460Z,8.55
2023-03-12T11:34:38.479Z,8.49
2023-03-12T11:35:39.404Z,8.36
2023-03-12T11:36:38.454Z,8.20
2023-03-12T11:37:40.385Z,8.10
2023-03-12T11:38:38.399Z,8.06
2023-03-12T11:39:38.372Z,8.03
2023-03-12T11:40:39.302Z,8.06
2023-03-12T11:41:38.369Z,8.15
2023-03-12T11:42:38.328Z,8.15
2023-03-12T11:43:43.543Z,8.23
2023-03-12T11:44:39.840Z,8.27
2023-03-12T11:45:38.300Z,8.33
2023-03-12T11:46:39.297Z,8.28
2023-03-12T11:47:38.345Z,8.09
2023-03-12T11:48:38.347Z,7.85
2023-03-12T11:49:38.239Z,7.61
2023-03-12T11:50:38.247Z,7.56
2023-03-12T11:51:39.174Z,7.54
2023-03-12T11:52:38.253Z,7.53
2023-03-12T11:53:38.224Z,7.50
2023-03-12T11:54:38.192Z,7.54
2023-03-12T11:55:38.197Z,7.61
2023-03-12T11:56:38.174Z,7.77
2023-03-12T11:57:39.072Z,7.91
2023-03-12T11:58:38.152Z,8.09
2023-03-12T11:59:38.113Z,8.27
2023-03-12T12:00:38.125Z,8.44
2023-03-12T12:01:38.127Z,8.58
2023-03-12T12:02:39.009Z,8.73
2023-03-12T12:03:38.121Z,8.92
2023-03-12T12:04:38.082Z,9.18
2023-03-12T12:05:38.053Z,9.32
2023-03-12T12:06:38.044Z,9.43
2023-03-12T12:07:38.974Z,9.37
2023-03-12T12:08:37.991Z,9.19
2023-03-12T12:09:37.993Z,8.95
2023-03-12T12:10:37.998Z,8.70
2023-03-12T12:11:37.995Z,8.51
2023-03-12T12:12:37.951Z,8.38
2023-03-12T12:13:38.885Z,8.41
2023-03-12T12:14:37.941Z,8.49
2023-03-12T12:15:37.931Z,8.56
2023-03-12T12:16:37.944Z,8.64
2023-03-12T12:17:37.927Z,8.70
2023-03-12T12:18:37.894Z,8.84
2023-03-12T12:19:38.797Z,9.03
2023-03-12T12:20:37.840Z,9.25
2023-03-12T12:21:37.850Z,9.26
2023-03-12T12:22:37.812Z,9.21
2023-03-12T12:23:37.826Z,9.13
2023-03-12T12:24:37.827Z,9.10
2023-03-12T12:25:38.723Z,9.06
2023-03-12T12:26:37.777Z,9.02
2023-03-12T12:27:37.781Z,9.03
2023-03-12T12:28:37.776Z,9.06
2023-03-12T12:29:37.760Z,9.11
2023-03-12T12:30:37.731Z,9.18
2023-03-12T12:31:38.703Z,9.28
2023-03-12T12:32:37.726Z,9.32
2023-03-12T12:33:37.721Z,9.40
2023-03-12T12:34:37.691Z,9.47
2023-03-12T12:35:37.740Z,9.46
2023-03-12T12:36:37.640Z,9.41
2023-03-12T12:37:38.585Z,9.44
2023-03-12T12:38:37.648Z,9.47
2023-03-12T12:39:37.629Z,9.55
2023-03-12T12:40:37.600Z,9.62
2023-03-12T12:41:37.622Z,9.69
2023-03-12T12:42:37.636Z,9.77
2023-03-12T12:43:38.529Z,9.74
2023-03-12T12:44:37.569Z,9.65
2023-03-12T12:45:37.623Z,9.54
2023-03-12T12:46:37.537Z,9.54
2023-03-12T12:47:37.541Z,9.32
2023-03-12T12:48:38.462Z,9.23
2023-03-12T12:49:37.492Z,9.16
2023-03-12T12:50:37.468Z,9.22
2023-03-12T12:51:37.494Z,9.16
2023-03-12T12:52:37.454Z,9.04
2023-03-12T12:53:38.404Z,8.84
2023-03-12T12:54:37.424Z,8.58
2023-03-12T12:55:37.434Z,8.37
2023-03-12T12:56:37.414Z,8.28
2023-03-12T12:57:37.401Z,8.28
2023-03-12T12:58:37.354Z,8.28
2023-03-12T12:59:38.334Z,8.30
2023-03-12T13:00:37.401Z,8.20
2023-03-12T13:01:37.357Z,8.18
2023-03-12T13:02:37.325Z,8.16
2023-03-12T13:03:37.331Z,8.06
2023-03-12T13:04:37.327Z,8.06
2023-03-12T13:05:38.201Z,7.97
2023-03-12T13:06:39.683Z,7.91
2023-03-12T13:07:37.321Z,7.82
2023-03-12T13:08:37.265Z,7.69
2023-03-12T13:09:37.314Z,7.60
2023-03-12T13:10:37.640Z,7.50
2023-03-12T13:11:38.155Z,7.42
2023-03-12T13:12:37.209Z,7.38
2023-03-12T13:13:37.187Z,7.42
2023-03-12T13:14:37.162Z,7.36
2023-03-12T13:15:37.199Z,7.40
2023-03-12T13:16:37.142Z,7.39
2023-03-12T13:17:38.074Z,7.32
2023-03-12T13:18:38.890Z,7.29
2023-03-12T13:19:37.158Z,7.29
2023-03-12T13:20:37.138Z,7.31
2023-03-12T13:21:37.149Z,7.35
2023-03-12T13:22:37.077Z,7.38
2023-03-12T13:23:37.974Z,7.43
2023-03-12T13:24:37.084Z,7.42
2023-03-12T13:25:37.026Z,7.42
2023-03-12T13:26:37.005Z,7.40
2023-03-12T13:27:37.012Z,7.40